createdAt,value
2019-02-24T00:00:07.917Z,5.30
2019-02-24T00:02:49.002Z,5.20
2019-02-24T00:05:30.424Z,5.20
2019-02-24T00:08:09.994Z,5.20
2019-02-24T00:10:58.470Z,5.20
2019-02-24T00:13:39.887Z,5.20
2019-02-24T00:16:21.750Z,5.20
2019-02-24T00:19:03.785Z,5.10
2019-02-24T00:21:44.587Z,4.90
2019-02-24T00:24:25.317Z,4.90
2019-02-24T00:27:06.090Z,5.00
2019-02-24T00:29:47.115Z,5.00
2019-02-24T00:32:28.672Z,4.90
2019-02-24T00:35:10.021Z,4.80
2019-02-24T00:37:51.368Z,4.90
2019-02-24T00:40:31.984Z,4.90
2019-02-24T00:43:11.481Z,4.70
2019-02-24T00:45:52.668Z,4.60
2019-02-24T00:51:15.803Z,4.40
2019-02-24T00:53:56.424Z,4.20
2019-02-24T00:56:37.614Z,4.30
2019-02-24T00:59:18.187Z,4.20
2019-02-24T01:02:00.008Z,4.20
2019-02-24T01:04:41.036Z,4.30
2019-02-24T01:07:22.007Z,4.30
2019-02-24T01:10:02.921Z,4.30
2019-02-24T01:12:42.510Z,4.30
2019-02-24T01:15:31.285Z,4.20
2019-02-24T01:18:13.980Z,3.80
2019-02-24T01:20:53.390Z,3.60
2019-02-24T01:23:34.389Z,3.60
2019-02-24T01:26:15.321Z,3.60
2019-02-24T01:28:56.378Z,3.60
2019-02-24T01:31:36.928Z,3.70
2019-02-24T01:34:17.898Z,3.70
2019-02-24T01:36:59.173Z,3.60
2019-02-24T01:39:40.787Z,3.40
2019-02-24T01:42:21.974Z,3.40
2019-02-24T01:45:02.572Z,3.50
2019-02-24T01:47:43.987Z,3.70
2019-02-24T01:50:24.561Z,3.50
2019-02-24T01:53:05.103Z,3.60
2019-02-24T01:55:45.789Z,3.50
2019-02-24T01:58:34.940Z,3.60
2019-02-24T02:01:09.610Z,3.50
2019-02-24T02:03:57.143Z,3.40
2019-02-24T02:06:37.767Z,3.60
2019-02-24T02:09:19.212Z,3.70
2019-02-24T02:12:00.284Z,3.70
2019-02-24T02:14:41.033Z,3.60
2019-02-24T02:17:22.471Z,3.70
2019-02-24T02:20:03.900Z,3.70
2019-02-24T02:22:45.204Z,3.80
2019-02-24T02:25:26.361Z,3.90
2019-02-24T02:28:07.733Z,3.90
2019-02-24T02:30:49.336Z,4.00
2019-02-24T02:33:30.824Z,3.90
2019-02-24T02:36:11.963Z,4.00
2019-02-24T02:38:52.944Z,4.20
2019-02-24T02:41:34.416Z,4.00
2019-02-24T02:44:15.313Z,4.10
2019-02-24T02:46:56.738Z,4.10
2019-02-24T02:49:38.171Z,3.90
2019-02-24T02:52:21.035Z,3.80
2019-02-24T02:55:02.372Z,3.60
2019-02-24T02:57:44.253Z,3.10
2019-02-24T03:00:25.206Z,3.00
2019-02-24T03:02:54.609Z,3.10
2019-02-24T03:05:23.961Z,3.00
2019-02-24T03:08:14.171Z,3.00
2019-02-24T03:11:02.697Z,3.20
2019-02-24T03:13:54.710Z,3.40
2019-02-24T03:16:37.042Z,3.20
2019-02-24T03:19:16.546Z,3.20
2019-02-24T03:21:57.266Z,3.40
2019-02-24T03:24:38.821Z,3.30
2019-02-24T03:27:20.517Z,3.40
2019-02-24T03:30:01.331Z,2.80
2019-02-24T03:32:42.628Z,2.40
2019-02-24T03:35:23.187Z,2.50
2019-02-24T03:38:04.537Z,2.80
2019-02-24T03:40:45.570Z,3.30
2019-02-24T03:43:26.591Z,3.50
2019-02-24T03:46:07.987Z,3.40
2019-02-24T03:48:48.675Z,3.50
2019-02-24T03:51:35.410Z,3.40
2019-02-24T03:54:16.695Z,3.40
2019-02-24T03:56:58.007Z,2.90
2019-02-24T03:59:39.541Z,2.60
2019-02-24T04:02:21.054Z,2.70
2019-02-24T04:05:02.531Z,2.70
2019-02-24T04:07:43.434Z,2.60
2019-02-24T04:10:24.163Z,2.60
2019-02-24T04:13:05.614Z,2.20
2019-02-24T04:15:46.521Z,2.10
2019-02-24T04:18:27.535Z,2.10
2019-02-24T04:21:08.216Z,2.10
2019-02-24T04:23:56.620Z,2.20
2019-02-24T04:26:37.581Z,2.10
2019-02-24T04:29:24.519Z,1.90
2019-02-24T04:32:01.131Z,2.20
2019-02-24T04:34:43.746Z,2.30
2019-02-24T04:37:24.615Z,2.40
2019-02-24T04:40:06.070Z,2.20
2019-02-24T04:42:47.632Z,2.10
2019-02-24T04:45:29.540Z,2.00
2019-02-24T04:48:10.306Z,2.00
2019-02-24T04:50:51.466Z,1.90
2019-02-24T04:53:33.643Z,2.00
2019-02-24T04:56:14.369Z,1.70
2019-02-24T04:58:55.752Z,2.00
2019-02-24T05:01:39.546Z,2.00
2019-02-24T05:04:20.751Z,2.30
2019-02-24T05:07:02.173Z,2.60
2019-02-24T05:09:42.930Z,2.70
2019-02-24T05:12:24.322Z,2.80
2019-02-24T05:15:07.508Z,2.40
2019-02-24T05:17:48.316Z,2.30
2019-02-24T05:20:29.583Z,2.50
2019-02-24T05:23:11.105Z,2.60
2019-02-24T05:25:52.263Z,2.90
2019-02-24T05:28:32.874Z,2.90
2019-02-24T05:31:14.062Z,3.10
2019-02-24T05:34:01.047Z,3.20
2019-02-24T05:36:44.508Z,3.30
2019-02-24T05:39:25.621Z,3.30
2019-02-24T05:42:06.825Z,3.30
2019-02-24T05:45:09.158Z,3.00
2019-02-24T05:47:50.432Z,3.00
2019-02-24T05:50:31.413Z,3.20
2019-02-24T05:53:12.540Z,3.20
2019-02-24T05:55:56.160Z,3.20
2019-02-24T05:58:36.852Z,3.30
2019-02-24T06:01:17.481Z,3.30
2019-02-24T06:04:09.121Z,3.30
2019-02-24T06:06:54.146Z,3.30
2019-02-24T06:09:34.780Z,3.40
2019-02-24T06:12:15.367Z,3.20
2019-02-24T06:14:57.883Z,3.20
2019-02-24T06:17:38.484Z,3.10
2019-02-24T06:20:25.376Z,2.70
2019-02-24T06:23:06.276Z,2.60
2019-02-24T06:25:46.940Z,2.70
2019-02-24T06:28:28.188Z,2.50
2019-02-24T06:31:08.917Z,2.30
2019-02-24T06:33:49.541Z,2.30
2019-02-24T06:36:30.955Z,2.10
2019-02-24T06:39:12.422Z,2.00
2019-02-24T06:41:53.111Z,1.80
2019-02-24T06:44:33.792Z,1.90
2019-02-24T06:47:15.319Z,1.70
2019-02-24T06:49:55.865Z,1.50
2019-02-24T06:52:36.589Z,1.50
2019-02-24T06:55:18.031Z,1.50
2019-02-24T06:57:47.550Z,1.40
2019-02-24T07:00:35.967Z,1.40
2019-02-24T07:03:17.597Z,1.60
2019-02-24T07:05:59.057Z,1.80
2019-02-24T07:11:41.589Z,2.10
2019-02-24T07:14:24.684Z,2.40
2019-02-24T07:17:05.836Z,2.50
2019-02-24T07:19:46.617Z,2.60
2019-02-24T07:22:28.174Z,2.80
2019-02-24T07:25:09.505Z,2.80
2019-02-24T07:27:51.031Z,3.00
2019-02-24T07:30:32.377Z,3.10
2019-02-24T07:33:13.488Z,2.90
2019-02-24T07:35:54.996Z,3.10
2019-02-24T07:38:38.805Z,3.30
2019-02-24T07:41:20.279Z,3.40
2019-02-24T07:44:01.176Z,3.50
2019-02-24T07:46:42.468Z,3.70
2019-02-24T07:49:23.216Z,3.70
2019-02-24T07:52:04.320Z,3.80
2019-02-24T07:54:44.760Z,3.80
2019-02-24T07:57:25.432Z,3.70
2019-02-24T08:00:06.678Z,3.90
2019-02-24T08:02:47.383Z,3.90
2019-02-24T08:05:29.820Z,3.80
2019-02-24T08:08:16.514Z,3.90
2019-02-24T08:10:53.737Z,4.10
2019-02-24T08:13:35.936Z,4.20
2019-02-24T08:16:17.364Z,4.30
2019-02-24T08:18:58.233Z,4.40
2019-02-24T08:21:46.689Z,4.60
2019-02-24T08:24:16.341Z,4.70
2019-02-24T08:27:04.748Z,4.80
2019-02-24T08:29:53.451Z,4.70
2019-02-24T08:32:34.477Z,4.60
2019-02-24T08:35:16.004Z,4.70
2019-02-24T08:37:57.394Z,4.80
2019-02-24T08:40:38.921Z,4.90
2019-02-24T08:43:20.052Z,4.80
2019-02-24T08:46:01.635Z,4.80
2019-02-24T08:48:43.091Z,4.50
2019-02-24T08:51:24.734Z,4.60
2019-02-24T08:54:10.094Z,4.60
2019-02-24T08:56:51.608Z,4.50
2019-02-24T08:59:32.770Z,4.60
2019-02-24T09:02:17.210Z,4.70
2019-02-24T09:04:59.319Z,4.80
2019-02-24T09:07:42.422Z,4.80
2019-02-24T09:10:23.688Z,4.90
2019-02-24T09:13:06.168Z,5.00
2019-02-24T09:15:47.495Z,5.10
2019-02-24T09:18:17.112Z,4.90
2019-02-24T09:21:05.623Z,4.90
2019-02-24T09:23:47.565Z,5.00
2019-02-24T09:26:28.810Z,5.20
2019-02-24T09:29:10.130Z,5.20
2019-02-24T09:31:51.504Z,5.40
2019-02-24T09:34:32.273Z,5.20
2019-02-24T09:37:13.227Z,5.20
2019-02-24T09:39:56.143Z,5.30
2019-02-24T09:45:20.436Z,5.70
2019-02-24T09:50:46.349Z,6.10
2019-02-24T09:53:30.347Z,6.20
2019-02-24T09:56:12.441Z,6.00
2019-02-24T09:58:53.851Z,6.10
2019-02-24T10:01:40.412Z,6.20
2019-02-24T10:04:21.496Z,6.30
2019-02-24T10:07:02.695Z,6.30
2019-02-24T10:09:43.629Z,6.50
2019-02-24T10:12:24.327Z,6.60
2019-02-24T10:15:05.515Z,6.80
2019-02-24T10:20:33.027Z,6.80
2019-02-24T10:23:14.587Z,6.70
2019-02-24T10:25:55.508Z,6.80
2019-02-24T10:28:37.178Z,6.80
2019-02-24T10:31:20.053Z,6.90
2019-02-24T10:34:00.652Z,7.00
2019-02-24T10:36:45.016Z,7.30
2019-02-24T10:39:29.739Z,7.30
2019-02-24T10:42:09.526Z,7.10
2019-02-24T10:44:58.042Z,7.20
2019-02-24T10:48:26.179Z,7.20
2019-02-24T10:51:08.001Z,7.30
2019-02-24T10:53:49.618Z,7.60
2019-02-24T10:56:31.956Z,7.60
2019-02-24T11:05:17.841Z,7.90
2019-02-24T11:07:59.457Z,7.90
2019-02-24T11:10:41.095Z,7.80
2019-02-24T11:16:37.467Z,8.00
2019-02-24T11:19:24.248Z,8.20
2019-02-24T11:22:25.627Z,8.30
2019-02-24T11:25:07.949Z,8.30
2019-02-24T11:27:49.304Z,8.10
2019-02-24T11:30:30.031Z,8.20
2019-02-24T11:33:10.773Z,8.40
2019-02-24T11:35:51.510Z,8.40
2019-02-24T11:38:33.299Z,8.50
2019-02-24T11:41:14.872Z,8.60
2019-02-24T11:43:54.293Z,8.60
2019-02-24T11:46:42.735Z,8.50
2019-02-24T11:55:24.261Z,8.80
2019-02-24T11:58:04.956Z,8.70
2019-02-24T12:00:45.712Z,8.60
2019-02-24T12:03:31.701Z,8.70
2019-02-24T12:06:13.058Z,8.50
2019-02-24T12:08:52.672Z,8.60
2019-02-24T12:11:41.239Z,8.70
2019-02-24T12:14:22.114Z,9.00
2019-02-24T12:17:03.561Z,9.10
2019-02-24T12:19:44.560Z,9.10
2019-02-24T12:22:29.142Z,9.10
2019-02-24T12:25:10.783Z,9.10
2019-02-24T12:27:52.604Z,9.00
2019-02-24T12:30:34.215Z,8.90
2019-02-24T12:33:14.833Z,8.80
2019-02-24T12:35:56.531Z,8.80
2019-02-24T12:38:37.706Z,8.80
2019-02-24T12:41:19.280Z,8.90
2019-02-24T12:44:00.476Z,8.80
2019-02-24T12:50:17.710Z,8.90
2019-02-24T12:52:59.530Z,8.80
2019-02-24T12:55:42.032Z,8.90
2019-02-24T12:58:23.551Z,8.90
2019-02-24T13:01:05.202Z,8.90
2019-02-24T13:03:46.101Z,8.90
2019-02-24T13:06:26.692Z,9.00
2019-02-24T13:09:08.707Z,9.00
2019-02-24T13:11:50.216Z,9.00
2019-02-24T13:14:31.701Z,8.80
2019-02-24T13:17:01.213Z,8.70
2019-02-24T13:19:49.842Z,8.70
2019-02-24T13:22:38.682Z,8.70
2019-02-24T13:25:19.392Z,8.80
2019-02-24T13:28:05.472Z,8.70
2019-02-24T13:30:50.424Z,8.70
2019-02-24T13:33:31.934Z,8.70
2019-02-24T13:36:12.992Z,8.70
2019-02-24T13:39:00.522Z,8.70
2019-02-24T13:41:41.747Z,8.80
2019-02-24T13:44:21.436Z,8.60
2019-02-24T13:47:02.773Z,8.60
2019-02-24T13:49:44.274Z,8.80
2019-02-24T13:52:25.516Z,8.90
2019-02-24T13:55:06.198Z,8.80
2019-02-24T13:57:55.126Z,8.90
2019-02-24T14:00:37.765Z,8.90
2019-02-24T14:03:18.817Z,8.90
2019-02-24T14:06:00.310Z,8.90
2019-02-24T14:08:41.515Z,9.10
2019-02-24T14:11:23.003Z,9.20
2019-02-24T14:14:04.277Z,9.20
2019-02-24T14:16:45.664Z,9.40
2019-02-24T14:19:26.428Z,9.30
2019-02-24T14:22:09.640Z,9.30
2019-02-24T14:24:49.094Z,9.30
2019-02-24T14:27:37.651Z,9.20
2019-02-24T14:30:18.979Z,9.20
2019-02-24T14:33:00.218Z,9.20
2019-02-24T14:35:41.763Z,9.20
2019-02-24T14:38:23.197Z,9.20
2019-02-24T14:41:04.797Z,9.20
2019-02-24T14:43:46.729Z,9.10
2019-02-24T14:46:46.689Z,9.00
2019-02-24T14:49:28.134Z,9.00
2019-02-24T14:52:09.526Z,9.00
2019-02-24T14:54:50.957Z,9.10
2019-02-24T14:57:32.593Z,9.10
2019-02-24T15:00:14.864Z,9.20
2019-02-24T15:02:54.631Z,9.20
2019-02-24T15:05:24.074Z,9.20
2019-02-24T15:07:53.637Z,9.10
2019-02-24T15:10:42.187Z,9.20
2019-02-24T15:13:23.056Z,9.10
2019-02-24T15:16:04.301Z,9.20
2019-02-24T15:18:45.313Z,9.30
2019-02-24T15:21:26.793Z,9.40
2019-02-24T15:24:18.742Z,9.50
2019-02-24T15:27:00.224Z,9.50
2019-02-24T15:29:29.958Z,9.50
2019-02-24T15:32:18.416Z,9.50
2019-02-24T15:34:59.622Z,9.40
2019-02-24T15:40:51.061Z,9.40
2019-02-24T15:43:31.974Z,9.40
2019-02-24T15:46:13.607Z,9.40
2019-02-24T15:49:04.202Z,9.40
2019-02-24T15:51:45.797Z,9.50
2019-02-24T15:54:26.970Z,9.50
2019-02-24T15:57:08.452Z,9.40
2019-02-24T15:59:53.812Z,9.30
2019-02-24T16:02:35.813Z,9.20
2019-02-24T16:05:21.008Z,9.10
2019-02-24T16:08:02.205Z,9.10
2019-02-24T16:10:45.929Z,9.20
2019-02-24T16:13:30.765Z,9.30
2019-02-24T16:19:20.145Z,9.20
2019-02-24T16:22:01.813Z,9.20
2019-02-24T16:24:44.192Z,9.10
2019-02-24T16:27:25.475Z,9.10
2019-02-24T16:30:06.443Z,9.00
2019-02-24T16:33:11.831Z,8.90
2019-02-24T16:35:53.154Z,8.80
2019-02-24T16:38:34.547Z,8.80
2019-02-24T16:41:25.300Z,8.90
2019-02-24T16:44:06.845Z,8.90
2019-02-24T16:46:37.067Z,8.90
2019-02-24T16:49:30.311Z,8.80
2019-02-24T16:52:11.329Z,8.70
2019-02-24T16:54:52.875Z,8.70
2019-02-24T16:57:38.992Z,8.70
2019-02-24T17:00:20.254Z,8.60
2019-02-24T17:03:07.772Z,8.50
2019-02-24T17:05:52.281Z,8.60
2019-02-24T17:11:43.171Z,8.50
2019-02-24T17:17:43.727Z,8.40
2019-02-24T17:20:24.981Z,8.40
2019-02-24T17:23:06.270Z,8.40
2019-02-24T17:25:47.867Z,8.40
2019-02-24T17:28:28.903Z,8.50
2019-02-24T17:31:10.660Z,8.40
2019-02-24T17:33:52.014Z,8.40
2019-02-24T17:36:33.098Z,8.30
2019-02-24T17:39:33.524Z,8.30
2019-02-24T17:42:17.279Z,8.30
2019-02-24T17:45:01.603Z,8.40
2019-02-24T17:47:43.053Z,8.40
2019-02-24T17:50:31.779Z,8.30
2019-02-24T17:53:13.022Z,8.30
2019-02-24T17:56:01.005Z,8.30
2019-02-24T17:58:43.145Z,8.30
2019-02-24T18:01:24.370Z,8.20
2019-02-24T18:04:12.984Z,8.20
2019-02-24T18:06:57.635Z,8.30
2019-02-24T18:09:40.691Z,8.20
2019-02-24T18:12:21.657Z,8.20
2019-02-24T18:15:02.935Z,8.30
2019-02-24T18:17:46.355Z,8.20
2019-02-24T18:20:27.992Z,8.20
2019-02-24T18:23:09.554Z,8.10
2019-02-24T18:25:54.744Z,8.10
2019-02-24T18:28:35.446Z,8.00
2019-02-24T18:31:21.626Z,8.00
2019-02-24T18:34:03.331Z,8.10
2019-02-24T18:36:44.345Z,7.90
2019-02-24T18:39:25.937Z,7.90
2019-02-24T18:42:07.188Z,7.90
2019-02-24T18:44:48.659Z,7.90
2019-02-24T18:47:29.810Z,7.90
2019-02-24T18:50:10.890Z,7.80
2019-02-24T18:52:57.392Z,7.80
2019-02-24T18:55:38.410Z,7.80
2019-02-24T18:58:21.924Z,7.80
2019-02-24T19:01:02.667Z,7.70
2019-02-24T19:03:32.268Z,7.70
2019-02-24T19:06:21.205Z,7.70
2019-02-24T19:09:02.344Z,7.60
2019-02-24T19:11:31.795Z,7.60
2019-02-24T19:14:22.415Z,7.60
2019-02-24T19:23:16.721Z,7.80
2019-02-24T19:26:00.294Z,7.80
2019-02-24T19:28:41.703Z,7.90
2019-02-24T19:31:11.214Z,7.80
2019-02-24T19:41:15.671Z,7.90
2019-02-24T19:44:23.293Z,7.80
2019-02-24T19:47:04.540Z,7.90
2019-02-24T19:49:45.257Z,7.90
2019-02-24T19:52:34.705Z,7.90
2019-02-24T19:58:14.528Z,7.80
2019-02-24T20:04:05.306Z,7.70
2019-02-24T20:06:46.440Z,7.70
2019-02-24T20:09:28.026Z,7.60
2019-02-24T20:12:10.832Z,7.60
2019-02-24T20:14:51.920Z,7.60
2019-02-24T20:17:33.262Z,7.60
2019-02-24T20:20:14.858Z,7.50
2019-02-24T20:22:56.068Z,7.40
2019-02-24T20:25:36.927Z,7.30
2019-02-24T20:28:18.681Z,7.20
2019-02-24T20:30:59.839Z,7.10
2019-02-24T20:33:29.295Z,7.10
2019-02-24T20:42:14.844Z,7.00
2019-02-24T20:44:44.264Z,7.00
2019-02-24T20:47:32.772Z,7.00
2019-02-24T20:51:00.416Z,6.90
2019-02-24T20:53:42.348Z,6.90
2019-02-24T20:56:23.322Z,6.90
2019-02-24T20:59:04.816Z,7.00
2019-02-24T21:01:45.366Z,7.00
2019-02-24T21:04:26.151Z,7.00
2019-02-24T21:07:07.372Z,7.00
2019-02-24T21:09:48.836Z,7.10
2019-02-24T21:12:29.570Z,7.10
2019-02-24T21:15:10.620Z,7.00
2019-02-24T21:17:51.927Z,7.00
2019-02-24T21:20:33.197Z,7.00
2019-02-24T21:23:14.803Z,7.00
2019-02-24T21:25:55.929Z,7.00
2019-02-24T21:28:36.559Z,7.00
2019-02-24T21:37:14.483Z,7.00
2019-02-24T21:39:55.709Z,6.80
2019-02-24T21:42:58.749Z,6.60
2019-02-24T21:45:40.132Z,6.50
2019-02-24T21:48:21.960Z,6.50
2019-02-24T21:51:03.434Z,6.50
2019-02-24T21:53:44.946Z,6.30
2019-02-24T21:56:25.709Z,6.10
2019-02-24T21:59:07.003Z,5.90
2019-02-24T22:01:47.678Z,6.00
2019-02-24T22:04:30.126Z,6.10
2019-02-24T22:07:12.687Z,6.30
2019-02-24T22:09:54.217Z,6.20
2019-02-24T22:12:36.950Z,6.20
2019-02-24T22:15:18.580Z,6.20
2019-02-24T22:17:48.614Z,6.30
2019-02-24T22:23:44.955Z,6.20
2019-02-24T22:26:38.438Z,6.20
2019-02-24T22:29:19.886Z,6.20
2019-02-24T22:32:01.019Z,6.20
2019-02-24T22:34:41.738Z,6.20
2019-02-24T22:37:21.311Z,6.30
2019-02-24T22:46:00.460Z,6.20
2019-02-24T22:48:41.792Z,6.10
2019-02-24T22:51:23.233Z,6.10
2019-02-24T22:54:04.750Z,6.00
2019-02-24T22:56:45.502Z,6.00
2019-02-24T22:59:37.260Z,6.10
2019-02-24T23:05:07.578Z,6.00
2019-02-24T23:07:49.817Z,6.00
2019-02-24T23:10:30.738Z,5.90
2019-02-24T23:13:11.965Z,5.80
2019-02-24T23:15:41.389Z,5.80
2019-02-24T23:18:10.820Z,5.80
2019-02-24T23:20:40.273Z,5.90
2019-02-24T23:23:09.707Z,5.90
2019-02-24T23:25:59.735Z,5.90
2019-02-24T23:28:48.209Z,6.00
2019-02-24T23:31:29.166Z,6.00
2019-02-24T23:34:10.726Z,5.90
2019-02-24T23:36:51.760Z,5.80
2019-02-24T23:39:32.512Z,5.90
2019-02-24T23:42:15.245Z,5.80
2019-02-24T23:44:58.403Z,5.80
2019-02-24T23:47:39.566Z,5.80
2019-02-24T23:50:19.045Z,5.80
2019-02-24T23:53:00.279Z,5.70
2019-02-24T23:55:41.348Z,5.70
2019-02-24T23:58:22.628Z,5.70
